createdAt,value
2019-04-26T00:02:27.825Z,8.35
2019-04-26T00:04:59.365Z,9.35
2019-04-26T00:07:29.280Z,9.45
2019-04-26T00:10:00.337Z,10.03
2019-04-26T00:15:25.745Z,8.73
2019-04-26T00:17:57.414Z,10.08
2019-04-26T00:20:27.123Z,9.20
2019-04-26T00:22:56.928Z,8.98
2019-04-26T00:25:26.748Z,8.30
2019-04-26T00:27:56.454Z,8.63
2019-04-26T00:30:26.269Z,7.83
2019-04-26T00:32:55.974Z,8.00
2019-04-26T00:35:25.685Z,7.92
2019-04-26T00:37:55.295Z,7.70
2019-04-26T00:40:25.113Z,7.67
2019-04-26T00:42:57.519Z,7.35
2019-04-26T00:45:27.301Z,7.45
2019-04-26T00:47:56.544Z,7.03
2019-04-26T00:50:26.305Z,8.05
2019-04-26T00:52:55.973Z,7.67
2019-04-26T00:55:25.397Z,8.23
2019-04-26T00:57:55.024Z,8.98
2019-04-26T01:00:26.100Z,8.50
2019-04-26T01:02:56.678Z,8.58
2019-04-26T01:05:26.617Z,7.17
2019-04-26T01:07:57.629Z,7.78
2019-04-26T01:10:27.374Z,7.28
2019-04-26T01:12:57.282Z,8.58
2019-04-26T01:15:27.093Z,7.00
2019-04-26T01:17:56.921Z,8.73
2019-04-26T01:20:26.759Z,7.22
2019-04-26T01:22:58.894Z,7.72
2019-04-26T01:25:34.542Z,7.62
2019-04-26T01:28:04.146Z,7.60
2019-04-26T01:30:33.754Z,7.85
2019-04-26T01:33:03.461Z,7.42
2019-04-26T01:38:21.838Z,8.30
2019-04-26T01:40:53.172Z,7.78
2019-04-26T01:43:26.383Z,7.65
2019-04-26T01:46:00.431Z,7.65
2019-04-26T01:51:22.768Z,7.87
2019-04-26T01:53:52.852Z,7.67
2019-04-26T01:56:25.836Z,7.55
2019-04-26T01:58:55.454Z,8.15
2019-04-26T02:01:27.481Z,8.30
2019-04-26T02:03:59.661Z,7.78
2019-04-26T02:06:33.299Z,7.70
2019-04-26T02:09:00.769Z,8.00
2019-04-26T02:11:32.972Z,7.95
2019-04-26T02:14:02.934Z,9.05
2019-04-26T02:16:33.320Z,8.33
2019-04-26T02:19:02.774Z,8.83
2019-04-26T02:21:34.256Z,8.08
2019-04-26T02:24:08.313Z,8.18
2019-04-26T02:26:42.326Z,7.87
2019-04-26T02:29:15.309Z,8.70
2019-04-26T02:31:45.412Z,9.38
2019-04-26T02:34:15.145Z,9.58
2019-04-26T02:36:57.175Z,8.98
2019-04-26T02:39:18.626Z,10.03
2019-04-26T02:41:49.673Z,9.13
2019-04-26T02:44:22.105Z,7.78
2019-04-26T02:47:14.006Z,7.22
2019-04-26T02:49:45.256Z,8.93
2019-04-26T02:52:35.175Z,7.75
2019-04-26T02:55:41.812Z,7.95
2019-04-26T02:58:07.771Z,7.92
2019-04-26T03:00:38.767Z,7.90
2019-04-26T03:03:08.031Z,8.05
2019-04-26T03:05:39.933Z,8.68
2019-04-26T03:08:10.421Z,8.05
2019-04-26T03:10:43.380Z,8.43
2019-04-26T03:13:17.935Z,9.30
2019-04-26T03:15:54.884Z,8.73
2019-04-26T03:18:31.714Z,8.98
2019-04-26T03:21:04.614Z,9.08
2019-04-26T03:23:58.452Z,8.85
2019-04-26T03:26:31.335Z,8.73
2019-04-26T03:29:12.977Z,9.00
2019-04-26T03:31:54.415Z,8.43
2019-04-26T03:34:52.626Z,8.88
2019-04-26T03:37:38.306Z,8.15
2019-04-26T03:40:36.880Z,8.80
2019-04-26T03:43:13.161Z,9.53
2019-04-26T03:46:19.285Z,8.88
2019-04-26T03:49:00.709Z,8.43
2019-04-26T03:51:48.546Z,9.25
2019-04-26T03:54:20.103Z,8.75
2019-04-26T03:56:52.794Z,8.55
2019-04-26T03:59:44.083Z,9.30
2019-04-26T04:02:16.161Z,8.65
2019-04-26T04:04:50.781Z,9.20
2019-04-26T04:07:36.072Z,9.38
2019-04-26T04:10:11.407Z,8.40
2019-04-26T04:12:45.815Z,8.83
2019-04-26T04:15:18.934Z,8.63
2019-04-26T04:18:00.811Z,9.33
2019-04-26T04:20:51.798Z,8.93
2019-04-26T04:23:34.022Z,8.33
2019-04-26T04:26:04.906Z,7.53
2019-04-26T04:28:44.463Z,10.70
2019-04-26T04:31:40.339Z,11.00
2019-04-26T04:34:14.039Z,12.45
2019-04-26T04:36:50.699Z,10.53
2019-04-26T04:39:20.809Z,10.38
2019-04-26T04:42:21.255Z,9.73
2019-04-26T04:45:13.491Z,10.13
2019-04-26T04:48:05.843Z,9.45
2019-04-26T04:50:40.970Z,9.73
2019-04-26T04:53:24.002Z,9.48
2019-04-26T04:56:08.853Z,10.10
2019-04-26T04:58:56.915Z,8.78
2019-04-26T05:01:44.200Z,9.90
2019-04-26T05:04:24.576Z,10.32
2019-04-26T05:07:05.755Z,9.65
2019-04-26T05:09:55.338Z,9.18
2019-04-26T05:12:30.398Z,8.90
2019-04-26T05:15:14.002Z,10.93
2019-04-26T05:18:11.365Z,8.98
2019-04-26T05:20:51.205Z,8.68
2019-04-26T05:23:44.644Z,9.65
2019-04-26T05:26:53.613Z,9.20
2019-04-26T05:29:50.762Z,9.53
2019-04-26T05:32:48.702Z,8.65
2019-04-26T05:35:57.323Z,9.58
2019-04-26T05:39:00.452Z,9.50
2019-04-26T05:42:03.645Z,8.60
2019-04-26T05:45:09.647Z,10.03
2019-04-26T05:48:25.087Z,8.93
2019-04-26T05:51:26.543Z,7.87
2019-04-26T05:54:17.188Z,8.43
2019-04-26T05:57:03.447Z,8.95
2019-04-26T06:00:26.711Z,8.20
2019-04-26T06:03:20.687Z,8.60
2019-04-26T06:06:09.633Z,8.83
2019-04-26T06:09:08.637Z,8.20
2019-04-26T06:11:46.064Z,6.83
2019-04-26T06:14:35.823Z,7.50
2019-04-26T06:17:13.206Z,8.03
2019-04-26T06:20:22.645Z,8.03
2019-04-26T06:23:04.750Z,7.72
2019-04-26T06:25:39.000Z,7.17
2019-04-26T06:28:37.575Z,6.83
2019-04-26T06:31:13.127Z,6.78
2019-04-26T06:33:51.879Z,7.10
2019-04-26T06:36:23.615Z,6.60
2019-04-26T06:39:15.404Z,7.53
2019-04-26T06:42:09.276Z,7.37
2019-04-26T06:45:28.243Z,6.70
2019-04-26T06:48:28.157Z,6.60
2019-04-26T06:51:07.299Z,6.83
2019-04-26T06:53:52.162Z,6.75
2019-04-26T06:56:42.815Z,7.45
2019-04-26T06:59:43.202Z,7.05
2019-04-26T07:02:34.005Z,7.28
2019-04-26T07:05:21.934Z,6.97
2019-04-26T07:07:54.510Z,6.75
2019-04-26T07:10:45.319Z,6.78
2019-04-26T07:13:40.723Z,8.98
2019-04-26T07:16:37.980Z,7.00
2019-04-26T07:19:29.198Z,7.00
2019-04-26T07:22:34.851Z,7.08
2019-04-26T07:25:11.066Z,7.25
2019-04-26T07:28:03.233Z,8.35
2019-04-26T07:30:47.706Z,7.03
2019-04-26T07:33:32.769Z,6.85
2019-04-26T07:36:26.544Z,7.30
2019-04-26T07:39:30.974Z,7.40
2019-04-26T07:42:09.445Z,8.60
2019-04-26T07:44:49.946Z,7.55
2019-04-26T07:47:56.222Z,7.30
2019-04-26T07:50:48.965Z,7.35
2019-04-26T07:53:41.410Z,8.53
2019-04-26T07:56:14.268Z,7.72
2019-04-26T07:59:16.268Z,7.08
2019-04-26T08:02:09.040Z,8.13
2019-04-26T08:04:48.249Z,8.28
2019-04-26T08:07:21.335Z,7.97
2019-04-26T08:09:59.774Z,7.78
2019-04-26T08:12:29.877Z,8.25
2019-04-26T08:15:39.126Z,6.95
2019-04-26T08:18:13.841Z,6.95
2019-04-26T08:20:48.380Z,8.10
2019-04-26T08:23:38.506Z,7.50
2019-04-26T08:25:58.986Z,8.20
2019-04-26T08:28:28.766Z,7.67
2019-04-26T08:30:58.575Z,7.10
2019-04-26T08:33:31.028Z,7.03
2019-04-26T08:38:41.131Z,7.42
2019-04-26T08:41:11.773Z,8.10
2019-04-26T08:43:45.533Z,7.58
2019-04-26T08:49:06.340Z,7.92
2019-04-26T08:51:36.499Z,7.55
2019-04-26T08:54:07.492Z,7.72
2019-04-26T08:56:43.290Z,7.78
2019-04-26T08:59:26.314Z,8.00
2019-04-26T09:01:58.138Z,8.40
2019-04-26T09:04:30.446Z,7.85
2019-04-26T09:07:02.690Z,7.25
2019-04-26T09:09:35.202Z,8.63
2019-04-26T09:12:08.187Z,8.20
2019-04-26T09:17:08.005Z,6.87
2019-04-26T09:19:37.817Z,7.33
2019-04-26T09:22:13.286Z,8.18
2019-04-26T09:24:42.162Z,7.40
2019-04-26T09:27:17.185Z,6.97
2019-04-26T09:29:49.561Z,6.78
2019-04-26T09:32:24.161Z,6.37
2019-04-26T09:34:55.542Z,6.80
2019-04-26T09:37:25.487Z,6.50
2019-04-26T09:39:56.090Z,5.30
2019-04-26T09:42:30.092Z,6.20
2019-04-26T09:45:19.566Z,6.00
2019-04-26T09:48:00.341Z,6.80
2019-04-26T09:50:40.802Z,6.25
2019-04-26T09:53:10.154Z,6.65
2019-04-26T09:55:39.486Z,6.80
2019-04-26T09:58:08.869Z,6.37
2019-04-26T10:00:38.629Z,6.62
2019-04-26T10:03:10.766Z,6.20
2019-04-26T10:05:40.599Z,5.50
2019-04-26T10:08:13.002Z,5.83
2019-04-26T10:10:41.359Z,7.17
2019-04-26T10:13:15.018Z,5.65
2019-04-26T10:15:58.070Z,6.05
2019-04-26T10:18:25.963Z,5.92
2019-04-26T10:20:55.489Z,5.90
2019-04-26T10:23:25.164Z,6.17
2019-04-26T10:25:54.871Z,5.90
2019-04-26T10:28:24.786Z,5.50
2019-04-26T10:30:54.489Z,5.45
2019-04-26T10:33:24.092Z,5.72
2019-04-26T10:35:56.675Z,5.78
2019-04-26T10:38:25.501Z,5.58
2019-04-26T10:40:54.842Z,5.70
2019-04-26T10:43:24.478Z,5.50
2019-04-26T10:45:55.036Z,5.55
2019-04-26T10:48:25.946Z,5.22
2019-04-26T10:50:55.764Z,6.12
2019-04-26T10:53:33.145Z,4.40
2019-04-26T10:56:24.177Z,5.65
2019-04-26T10:58:56.530Z,5.33
2019-04-26T11:01:26.343Z,5.58
2019-04-26T11:03:56.155Z,5.78
2019-04-26T11:06:27.887Z,6.40
2019-04-26T11:08:57.809Z,5.75
2019-04-26T11:11:27.542Z,5.62
2019-04-26T11:13:57.595Z,5.45
2019-04-26T11:16:27.680Z,4.95
2019-04-26T11:19:01.150Z,5.55
2019-04-26T11:21:29.547Z,5.22
2019-04-26T11:23:59.265Z,6.17
2019-04-26T11:26:31.035Z,5.55
2019-04-26T11:29:00.325Z,5.00
2019-04-26T11:31:30.163Z,5.28
2019-04-26T11:34:05.526Z,5.22
2019-04-26T11:36:31.086Z,5.35
2019-04-26T11:39:01.364Z,4.90
2019-04-26T11:41:33.965Z,5.53
2019-04-26T11:44:03.501Z,5.10
2019-04-26T11:46:44.232Z,5.05
2019-04-26T11:49:07.173Z,4.95
2019-04-26T11:51:37.029Z,4.95
2019-04-26T11:54:06.735Z,5.55
2019-04-26T11:56:37.509Z,5.40
2019-04-26T11:59:08.514Z,4.87
2019-04-26T12:01:40.436Z,4.95
2019-04-26T12:04:18.076Z,5.83
2019-04-26T12:06:58.850Z,5.12
2019-04-26T12:09:36.234Z,5.00
2019-04-26T12:12:09.251Z,5.70
2019-04-26T12:14:37.089Z,6.97
2019-04-26T12:17:06.361Z,5.65
2019-04-26T12:19:36.088Z,5.00
2019-04-26T12:22:08.378Z,5.95
2019-04-26T12:24:36.983Z,4.55
2019-04-26T12:27:06.346Z,4.87
2019-04-26T12:29:37.598Z,5.58
2019-04-26T12:32:07.202Z,5.78
2019-04-26T12:34:36.919Z,5.10
2019-04-26T12:37:06.625Z,4.97
2019-04-26T12:39:36.717Z,5.37
2019-04-26T12:42:08.273Z,4.60
2019-04-26T12:44:47.449Z,4.95
2019-04-26T12:47:21.340Z,5.22
2019-04-26T12:49:54.481Z,4.80
2019-04-26T12:52:22.835Z,4.85
2019-04-26T12:54:52.518Z,5.15
2019-04-26T12:57:22.329Z,5.05
2019-04-26T12:59:52.042Z,5.12
2019-04-26T13:02:21.978Z,4.60
2019-04-26T13:04:51.407Z,6.12
2019-04-26T13:07:24.198Z,5.58
2019-04-26T13:10:08.797Z,5.00
2019-04-26T13:12:51.928Z,5.10
2019-04-26T13:15:52.156Z,4.80
2019-04-26T13:18:21.758Z,5.55
2019-04-26T13:20:51.469Z,4.83
2019-04-26T13:23:21.283Z,5.17
2019-04-26T13:25:51.090Z,5.20
2019-04-26T13:28:21.856Z,5.78
2019-04-26T13:30:51.742Z,4.47
2019-04-26T13:33:23.279Z,5.03
2019-04-26T13:36:02.526Z,5.58
2019-04-26T13:38:24.146Z,4.92
2019-04-26T13:40:53.969Z,5.33
2019-04-26T13:43:26.999Z,4.90
2019-04-26T13:46:14.309Z,4.97
2019-04-26T13:48:57.496Z,5.33
2019-04-26T13:51:28.537Z,5.00
2019-04-26T13:53:58.177Z,4.87
2019-04-26T13:56:27.857Z,5.20
2019-04-26T13:58:58.292Z,4.40
2019-04-26T14:01:29.018Z,5.22
2019-04-26T14:03:58.382Z,4.67
2019-04-26T14:06:28.145Z,5.10
2019-04-26T14:09:00.774Z,4.78
2019-04-26T14:11:29.579Z,5.70
2019-04-26T14:14:00.197Z,5.22
2019-04-26T14:16:31.076Z,5.08
2019-04-26T14:19:00.722Z,4.47
2019-04-26T14:21:33.113Z,5.83
2019-04-26T14:24:23.966Z,5.00
2019-04-26T14:26:52.311Z,6.70
2019-04-26T14:29:22.153Z,5.55
2019-04-26T14:31:53.080Z,5.40
2019-04-26T14:34:22.896Z,5.05
2019-04-26T14:37:05.558Z,5.00
2019-04-26T14:39:35.126Z,5.92
2019-04-26T14:41:57.036Z,5.00
2019-04-26T14:44:27.114Z,5.78
2019-04-26T14:46:57.999Z,5.50
2019-04-26T14:49:38.466Z,5.08
2019-04-26T14:51:59.170Z,5.60
2019-04-26T14:54:28.526Z,5.62
2019-04-26T14:56:59.826Z,5.10
2019-04-26T14:59:44.430Z,6.03
2019-04-26T15:02:32.933Z,5.60
2019-04-26T15:05:09.232Z,4.97
2019-04-26T15:07:48.599Z,6.22
2019-04-26T15:10:10.981Z,5.50
2019-04-26T15:12:46.914Z,5.83
2019-04-26T15:15:12.230Z,6.58
2019-04-26T15:17:42.264Z,5.03
2019-04-26T15:20:12.656Z,5.20
2019-04-26T15:22:48.487Z,6.30
2019-04-26T15:25:14.031Z,4.95
2019-04-26T15:27:44.186Z,5.95
2019-04-26T15:30:13.633Z,5.53
2019-04-26T15:32:42.994Z,6.40
2019-04-26T15:35:16.149Z,5.75
2019-04-26T15:37:45.046Z,6.58
2019-04-26T15:40:22.592Z,6.95
2019-04-26T15:43:02.996Z,6.60
2019-04-26T15:45:44.697Z,5.40
2019-04-26T15:48:28.117Z,6.25
2019-04-26T15:50:58.332Z,7.03
2019-04-26T15:53:28.153Z,6.50
2019-04-26T15:55:57.529Z,5.90
2019-04-26T15:58:27.161Z,6.00
2019-04-26T16:00:56.613Z,5.80
2019-04-26T16:03:26.282Z,6.58
2019-04-26T16:05:59.142Z,7.33
2019-04-26T16:08:27.073Z,6.00
2019-04-26T16:10:56.838Z,6.90
2019-04-26T16:13:26.247Z,6.62
2019-04-26T16:15:55.949Z,6.28
2019-04-26T16:18:25.561Z,6.37
2019-04-26T16:20:55.266Z,6.08
2019-04-26T16:23:38.028Z,6.20
2019-04-26T16:25:55.960Z,6.85
2019-04-26T16:28:31.018Z,5.42
2019-04-26T16:31:20.445Z,6.10
2019-04-26T16:33:52.092Z,7.45
2019-04-26T16:36:23.768Z,5.97
2019-04-26T16:38:56.436Z,6.08
2019-04-26T16:41:27.226Z,7.92
2019-04-26T16:43:55.942Z,5.95
2019-04-26T16:46:25.321Z,6.33
2019-04-26T16:49:01.782Z,7.00
2019-04-26T16:51:26.714Z,7.50
2019-04-26T16:54:06.541Z,7.22
2019-04-26T16:56:28.353Z,6.65
2019-04-26T16:58:58.398Z,6.75
2019-04-26T17:01:28.105Z,7.17
2019-04-26T17:03:57.925Z,6.83
2019-04-26T17:06:27.742Z,10.55
2019-04-26T17:09:01.501Z,12.37
2019-04-26T17:11:30.278Z,20.43
2019-04-26T17:14:04.868Z,10.78
2019-04-26T17:16:34.822Z,13.50
2019-04-26T17:19:03.666Z,14.25
2019-04-26T17:21:34.797Z,12.05
2019-04-26T17:24:09.539Z,9.93
2019-04-26T17:26:42.857Z,7.97
2019-04-26T17:29:15.093Z,8.28
2019-04-26T17:31:45.806Z,7.05
2019-04-26T17:34:15.294Z,6.45
2019-04-26T17:36:46.380Z,7.12
2019-04-26T17:39:18.277Z,7.58
2019-04-26T17:41:52.497Z,6.87
2019-04-26T17:44:26.027Z,12.85
2019-04-26T17:46:56.169Z,11.90
2019-04-26T17:49:27.137Z,9.30
2019-04-26T17:51:57.989Z,12.35
2019-04-26T17:54:41.430Z,11.28
2019-04-26T17:56:57.419Z,15.20
2019-04-26T17:59:33.519Z,18.17
2019-04-26T18:02:01.146Z,14.53
2019-04-26T18:04:36.491Z,14.40
2019-04-26T18:07:10.922Z,13.70
2019-04-26T18:09:44.671Z,13.08
2019-04-26T18:12:05.464Z,11.78
2019-04-26T18:14:35.173Z,12.35
2019-04-26T18:17:09.266Z,11.25
2019-04-26T18:19:46.686Z,10.55
2019-04-26T18:22:28.428Z,9.93
2019-04-26T18:24:58.599Z,7.67
2019-04-26T18:27:29.891Z,8.08
2019-04-26T18:30:06.614Z,7.30
2019-04-26T18:32:33.925Z,7.67
2019-04-26T18:35:01.916Z,8.10
2019-04-26T18:37:31.226Z,7.28
2019-04-26T18:40:02.046Z,6.80
2019-04-26T18:42:37.466Z,7.47
2019-04-26T18:45:08.560Z,8.17
2019-04-26T18:47:40.481Z,6.70
2019-04-26T18:50:10.466Z,7.15
2019-04-26T18:52:59.846Z,6.62
2019-04-26T18:55:34.388Z,7.62
2019-04-26T18:58:05.493Z,7.10
2019-04-26T19:00:37.134Z,7.37
2019-04-26T19:03:07.538Z,7.33
2019-04-26T19:05:37.657Z,8.18
2019-04-26T19:08:09.887Z,8.00
2019-04-26T19:10:39.361Z,7.53
2019-04-26T19:13:22.188Z,7.35
2019-04-26T19:16:04.113Z,7.85
2019-04-26T19:18:45.188Z,7.60
2019-04-26T19:21:23.054Z,9.58
2019-04-26T19:24:04.877Z,9.73
2019-04-26T19:26:32.453Z,9.10
2019-04-26T19:28:56.238Z,9.75
2019-04-26T19:31:27.326Z,8.90
2019-04-26T19:33:57.017Z,8.63
2019-04-26T19:36:29.339Z,9.83
2019-04-26T19:38:59.409Z,9.33
2019-04-26T19:41:29.221Z,8.03
2019-04-26T19:43:59.033Z,8.58
2019-04-26T19:46:36.630Z,8.83
2019-04-26T19:49:21.534Z,10.10
2019-04-26T19:52:09.127Z,10.80
2019-04-26T19:54:41.797Z,9.38
2019-04-26T19:57:17.240Z,6.90
2019-04-26T19:59:47.193Z,7.05
2019-04-26T20:02:17.491Z,7.83
2019-04-26T20:04:47.492Z,6.72
2019-04-26T20:07:17.728Z,7.17
2019-04-26T20:09:47.443Z,6.00
2019-04-26T20:12:18.025Z,6.00
2019-04-26T20:14:51.206Z,4.40
2019-04-26T20:17:21.815Z,6.12
2019-04-26T20:19:54.467Z,5.53
2019-04-26T20:22:28.532Z,6.17
2019-04-26T20:24:57.663Z,5.50
2019-04-26T20:27:29.416Z,5.25
2019-04-26T20:29:59.541Z,6.00
2019-04-26T20:32:32.523Z,5.22
2019-04-26T20:35:07.199Z,4.40
2019-04-26T20:37:37.520Z,4.25
2019-04-26T20:40:20.274Z,4.35
2019-04-26T20:42:42.250Z,4.28
2019-04-26T20:45:16.583Z,3.92
2019-04-26T20:47:46.838Z,3.52
2019-04-26T20:50:14.857Z,3.25
2019-04-26T20:52:45.547Z,3.15
2019-04-26T20:55:15.394Z,3.52
2019-04-26T20:57:45.103Z,2.42
2019-04-26T21:00:16.470Z,2.85
2019-04-26T21:02:46.266Z,3.47
2019-04-26T21:05:16.073Z,2.95
2019-04-26T21:07:49.114Z,3.08
2019-04-26T21:10:21.848Z,3.10
2019-04-26T21:12:52.279Z,2.85
2019-04-26T21:15:20.634Z,3.17
2019-04-26T21:17:51.874Z,2.83
2019-04-26T21:20:21.639Z,3.12
2019-04-26T21:22:52.500Z,2.67
2019-04-26T21:25:35.432Z,3.05
2019-04-26T21:28:08.660Z,3.00
2019-04-26T21:30:41.694Z,2.80
2019-04-26T21:33:13.206Z,3.05
2019-04-26T21:35:50.282Z,2.55
2019-04-26T21:38:29.719Z,3.00
2019-04-26T21:41:14.115Z,3.05
2019-04-26T21:43:43.862Z,3.72
2019-04-26T21:46:18.500Z,2.55
2019-04-26T21:48:45.156Z,3.20
2019-04-26T21:51:16.218Z,2.35
2019-04-26T21:53:46.111Z,2.98
2019-04-26T21:56:15.921Z,3.50
2019-04-26T21:58:46.079Z,3.42
2019-04-26T22:01:19.073Z,3.45
2019-04-26T22:03:54.282Z,2.55
2019-04-26T22:06:19.924Z,2.83
2019-04-26T22:08:57.274Z,3.22
2019-04-26T22:11:23.939Z,3.27
2019-04-26T22:13:55.257Z,2.62
2019-04-26T22:16:34.261Z,3.72
2019-04-26T22:19:07.897Z,2.95
2019-04-26T22:21:48.558Z,3.45
2019-04-26T22:24:19.577Z,3.87
2019-04-26T22:26:49.219Z,3.20
2019-04-26T22:29:18.912Z,3.80
2019-04-26T22:31:48.726Z,3.05
2019-04-26T22:34:18.438Z,2.92
2019-04-26T22:36:47.784Z,3.35
2019-04-26T22:39:18.465Z,3.87
2019-04-26T22:41:47.751Z,3.17
2019-04-26T22:44:32.282Z,2.80
2019-04-26T22:47:07.282Z,3.30
2019-04-26T22:49:41.625Z,3.37
2019-04-26T22:52:11.162Z,3.55
2019-04-26T22:54:44.745Z,3.98
2019-04-26T22:57:13.138Z,3.45
2019-04-26T22:59:43.241Z,3.85
2019-04-26T23:02:18.273Z,4.47
2019-04-26T23:04:45.214Z,4.67
2019-04-26T23:07:18.493Z,4.67
2019-04-26T23:09:51.934Z,3.90
2019-04-26T23:12:25.336Z,4.37
2019-04-26T23:14:58.336Z,4.70
2019-04-26T23:17:31.361Z,4.20
2019-04-26T23:20:13.096Z,4.60
2019-04-26T23:22:42.933Z,4.95
2019-04-26T23:25:13.633Z,4.28
2019-04-26T23:27:43.640Z,5.17
2019-04-26T23:30:14.934Z,5.20
2019-04-26T23:32:48.461Z,5.30
2019-04-26T23:35:15.996Z,4.25
2019-04-26T23:37:45.811Z,4.85
2019-04-26T23:40:15.117Z,4.42
2019-04-26T23:42:47.515Z,4.37
2019-04-26T23:45:15.904Z,3.98
2019-04-26T23:47:45.578Z,4.47
2019-04-26T23:50:15.277Z,5.08
2019-04-26T23:52:49.179Z,4.87
2019-04-26T23:55:16.221Z,5.05
2019-04-26T23:57:45.639Z,4.62
